Terminal Aerodrome Forecast
Issued by NWS Green Bay, WI

Home | Current Version | Previous Version | Text Only | Print | Product List | Glossary On
Versions: 1 2 3 4 5 6 7 8 9 10 11 12 13 14 15 16 17 18 19 20 21 22 23 24 25 26 27 28 29 30 31 32 33 34 35 36
000
FTUS43 KGRB 301124
TAFGRB
TAF
KGRB 301124Z 3012/3112 25008KT P6SM BKN060
     FM301400 26011G19KT P6SM BKN050
     FM301600 26013G21KT P6SM BKN035
     FM301800 27013G21KT P6SM -SHRA BKN035
     FM302300 27010G16KT P6SM BKN040
     FM310100 27006KT P6SM BKN050=

USA.gov is the U.S. government's official web portal to all federal, state and local government web resources and services.